Time;durP1;ratioP1;P1;durP2;ratioP2;P2;SDS_P1;SDS_P2;PMS_P1;PMS_P2;Temp;Humidity;BMP_temperature;BMP_pressure;BME280_temperature;BME280_humidity;BME280_pressure;Samples;Min_cycle;Max_cycle;Signal;HPM_P1;HPM_P2
2021/06/20 00:01:13;;;;;;;2.72;2.53;;;26.70;45.30;;;;;;4969739;28;20337;-39
2021/06/20 00:03:39;;;;;;;2.60;2.40;;;26.80;45.40;;;;;;4971578;28;20740;-50
2021/06/20 00:06:05;;;;;;;2.55;2.35;;;26.70;45.30;;;;;;4973615;28;20215;-54
2021/06/20 00:08:32;;;;;;;2.97;2.78;;;26.80;45.30;;;;;;4971845;28;20327;-42
2021/06/20 00:10:58;;;;;;;2.50;2.30;;;26.80;45.40;;;;;;4972654;28;20204;-42
2021/06/20 00:13:25;;;;;;;2.83;2.63;;;26.70;45.30;;;;;;4972028;28;20204;-43
2021/06/20 00:15:51;;;;;;;3.08;2.78;;;26.70;45.20;;;;;;4973997;28;20207;-43
2021/06/20 00:18:18;;;;;;;2.90;2.70;;;26.70;45.20;;;;;;4972892;28;20661;-41
2021/06/20 00:20:44;;;;;;;2.53;2.33;;;26.70;45.20;;;;;;4971661;28;20272;-54
2021/06/20 00:23:11;;;;;;;2.83;2.60;;;26.70;45.20;;;;;;4972390;28;20204;-51
2021/06/20 00:25:37;;;;;;;2.50;2.30;;;26.70;45.20;;;;;;4972624;28;20240;-45
2021/06/20 00:28:04;;;;;;;2.75;2.55;;;26.70;45.20;;;;;;4972818;28;20201;-48
2021/06/20 00:30:30;;;;;;;2.55;2.30;;;26.70;45.20;;;;;;4972519;28;20343;-39
2021/06/20 00:32:56;;;;;;;3.10;2.90;;;26.70;45.20;;;;;;4972721;28;20310;-42
2021/06/20 00:35:23;;;;;;;2.58;2.38;;;26.70;45.20;;;;;;4973319;28;20288;-44
2021/06/20 00:37:49;;;;;;;2.70;2.50;;;26.70;45.10;;;;;;4972512;28;20295;-49
2021/06/20 00:40:16;;;;;;;2.90;2.70;;;26.70;45.20;;;;;;4972717;28;20220;-45
2021/06/20 00:42:42;;;;;;;2.67;2.47;;;26.80;45.20;;;;;;4972541;28;20200;-41
2021/06/20 00:45:09;;;;;;;2.55;2.35;;;26.70;45.10;;;;;;4973173;28;20235;-46
2021/06/20 00:47:35;;;;;;;2.90;2.70;;;26.70;45.10;;;;;;4963477;28;20210;-42
2021/06/20 00:50:02;;;;;;;2.95;2.75;;;26.70;45.10;;;;;;4972523;28;20311;-49
2021/06/20 00:52:28;;;;;;;2.42;2.30;;;26.70;45.10;;;;;;4972180;28;20200;-40
2021/06/20 00:54:54;;;;;;;2.90;2.70;;;26.70;45.10;;;;;;4972216;28;20287;-46
2021/06/20 00:57:21;;;;;;;3.00;2.70;;;26.70;45.10;;;;;;4971790;28;20210;-51
2021/06/20 00:59:47;;;;;;;2.80;2.60;;;26.70;45.00;;;;;;4971363;28;20303;-42
2021/06/20 01:02:14;;;;;;;2.67;2.40;;;26.70;44.90;;;;;;4971752;28;20211;-44
2021/06/20 01:04:40;;;;;;;2.78;2.58;;;26.70;45.00;;;;;;4971258;28;20234;-44
2021/06/20 01:07:07;;;;;;;2.70;2.50;;;26.70;45.00;;;;;;4972007;28;20204;-42
2021/06/20 01:09:33;;;;;;;2.67;2.47;;;26.70;44.90;;;;;;4972269;28;20223;-50
2021/06/20 01:12:00;;;;;;;2.70;2.50;;;26.70;44.90;;;;;;4970757;28;20211;-45
2021/06/20 01:14:27;;;;;;;2.40;2.20;;;26.70;44.90;;;;;;4971218;28;20311;-39
2021/06/20 01:16:53;;;;;;;2.83;2.63;;;26.70;44.90;;;;;;4972043;28;20573;-39
2021/06/20 01:19:20;;;;;;;2.80;2.60;;;26.70;45.00;;;;;;4971195;28;20586;-37
2021/06/20 01:21:46;;;;;;;2.88;2.40;;;26.70;44.90;;;;;;4972021;28;20236;-44
2021/06/20 01:24:13;;;;;;;2.58;2.38;;;26.70;44.90;;;;;;4971370;28;20232;-44
2021/06/20 01:26:39;;;;;;;2.92;2.72;;;26.70;44.90;;;;;;4972262;28;20210;-44
2021/06/20 01:29:08;;;;;;;2.88;2.67;;;26.70;44.90;;;;;;4971757;28;20224;-46
2021/06/20 01:31:35;;;;;;;2.67;2.47;;;26.70;45.00;;;;;;4971582;28;20215;-49
2021/06/20 01:34:01;;;;;;;2.90;2.70;;;26.80;45.00;;;;;;4971485;28;20204;-53
2021/06/20 01:36:28;;;;;;;2.70;2.50;;;26.70;45.00;;;;;;4972510;28;20207;-44
2021/06/20 01:38:54;;;;;;;2.90;2.70;;;26.70;44.90;;;;;;4971426;28;20327;-58
2021/06/20 01:41:21;;;;;;;2.92;2.72;;;26.70;44.90;;;;;;4971735;28;20282;-42
2021/06/20 01:43:47;;;;;;;2.97;2.78;;;26.70;44.90;;;;;;4971560;28;20597;-45
2021/06/20 01:46:13;;;;;;;2.70;2.50;;;26.70;44.90;;;;;;4972161;28;20206;-45
2021/06/20 01:48:40;;;;;;;2.75;2.55;;;26.70;44.90;;;;;;4970954;28;20220;-47
2021/06/20 01:51:06;;;;;;;2.78;2.58;;;26.70;44.90;;;;;;4970873;28;20196;-44
2021/06/20 01:53:33;;;;;;;3.00;2.80;;;26.70;44.90;;;;;;4972266;28;20226;-47
2021/06/20 01:55:59;;;;;;;2.88;2.63;;;26.70;44.90;;;;;;4969460;28;20200;-53
2021/06/20 01:58:26;;;;;;;2.78;2.42;;;26.70;44.90;;;;;;4972081;28;20579;-40
2021/06/20 02:00:52;;;;;;;2.88;2.30;;;26.70;44.90;;;;;;4970015;28;20205;-40
2021/06/20 02:03:19;;;;;;;2.67;2.47;;;26.70;44.90;;;;;;4971469;28;20208;-44
2021/06/20 02:05:45;;;;;;;2.38;2.28;;;26.70;44.90;;;;;;4971272;28;20319;-49
2021/06/20 02:08:12;;;;;;;2.50;2.30;;;26.70;44.90;;;;;;4971988;28;20299;-56
2021/06/20 02:10:38;;;;;;;2.53;2.33;;;26.70;44.90;;;;;;4965316;28;20270;-52
2021/06/20 02:13:05;;;;;;;2.80;2.60;;;26.70;45.00;;;;;;4970759;28;20743;-42
2021/06/20 02:15:31;;;;;;;2.55;2.35;;;26.70;44.90;;;;;;4969983;28;20280;-45
2021/06/20 02:17:58;;;;;;;2.50;2.30;;;26.70;45.00;;;;;;4972036;28;20212;-37
2021/06/20 02:20:24;;;;;;;2.78;2.58;;;26.70;45.00;;;;;;4969997;28;20201;-51
2021/06/20 02:22:51;;;;;;;2.63;2.42;;;26.70;44.90;;;;;;4971902;28;20216;-52
2021/06/20 02:25:18;;;;;;;2.60;2.40;;;26.70;44.90;;;;;;4970108;28;20232;-44
2021/06/20 02:27:44;;;;;;;2.42;2.22;;;26.70;44.90;;;;;;4971699;28;20207;-48
2021/06/20 02:30:11;;;;;;;2.33;2.20;;;26.70;44.90;;;;;;4970122;28;20215;-43
2021/06/20 02:32:37;;;;;;;2.40;2.20;;;26.70;44.90;;;;;;4971497;28;20226;-45
2021/06/20 02:35:04;;;;;;;2.50;2.30;;;26.70;44.90;;;;;;4969794;28;20294;-52
2021/06/20 02:37:31;;;;;;;3.00;2.67;;;26.70;45.00;;;;;;4971633;28;20644;-39
2021/06/20 02:39:58;;;;;;;2.75;2.47;;;26.70;44.90;;;;;;4970133;28;20234;-45
2021/06/20 02:42:24;;;;;;;2.40;2.30;;;26.70;45.20;;;;;;4971709;28;20220;-48
2021/06/20 02:44:51;;;;;;;2.50;2.30;;;26.70;45.20;;;;;;4968532;28;20254;-41
2021/06/20 02:47:18;;;;;;;2.40;2.20;;;26.70;45.20;;;;;;4968808;28;20208;-38
2021/06/20 02:49:44;;;;;;;2.30;2.20;;;26.70;45.30;;;;;;4963799;28;20251;-42
2021/06/20 02:52:11;;;;;;;2.42;2.22;;;26.70;45.30;;;;;;4969810;28;20210;-38
2021/06/20 02:54:37;;;;;;;2.63;2.20;;;26.70;45.30;;;;;;4970614;28;20205;-46
2021/06/20 02:57:03;;;;;;;2.80;2.60;;;26.70;45.30;;;;;;4970370;28;20205;-37
2021/06/20 02:59:30;;;;;;;2.40;2.20;;;26.70;45.20;;;;;;4970658;28;20235;-41
2021/06/20 03:01:57;;;;;;;2.85;2.65;;;26.70;45.30;;;;;;4970732;28;20204;-39
2021/06/20 03:04:23;;;;;;;2.70;2.50;;;26.70;45.30;;;;;;4971179;28;20321;-48
2021/06/20 03:06:49;;;;;;;3.15;2.50;;;26.70;45.20;;;;;;4966492;28;20206;-41
2021/06/20 03:09:16;;;;;;;2.50;2.30;;;26.70;45.20;;;;;;4965032;28;20229;-44
2021/06/20 03:11:42;;;;;;;2.38;2.17;;;26.70;45.20;;;;;;4969731;28;20249;-54
2021/06/20 03:14:09;;;;;;;2.72;2.53;;;26.70;45.20;;;;;;4969695;28;20211;-43
2021/06/20 03:16:35;;;;;;;2.53;2.33;;;26.70;45.20;;;;;;4972409;28;20227;-49
2021/06/20 03:19:02;;;;;;;2.63;2.42;;;26.70;45.20;;;;;;4974371;28;20250;-37
2021/06/20 03:21:28;;;;;;;2.60;2.40;;;26.70;45.10;;;;;;4973913;28;20208;-37
2021/06/20 03:23:55;;;;;;;2.20;2.00;;;26.70;45.10;;;;;;4974739;28;20566;-46
2021/06/20 03:26:21;;;;;;;2.30;2.10;;;26.70;45.10;;;;;;4973199;28;20311;-38
2021/06/20 03:28:47;;;;;;;2.80;2.58;;;26.70;45.10;;;;;;4973335;28;20229;-47
2021/06/20 03:31:17;;;;;;;2.13;2.03;;;26.70;45.10;;;;;;4972230;28;20209;-53
2021/06/20 03:33:44;;;;;;;2.33;2.22;;;26.70;45.00;;;;;;4973961;28;20205;-51
2021/06/20 03:36:10;;;;;;;3.20;2.90;;;26.70;45.00;;;;;;4974636;28;20291;-44
2021/06/20 03:38:37;;;;;;;2.33;2.13;;;26.70;45.00;;;;;;4972364;28;20231;-49
2021/06/20 03:41:03;;;;;;;2.60;2.40;;;26.70;44.90;;;;;;4973636;28;20203;-40
2021/06/20 03:43:29;;;;;;;2.63;2.42;;;26.70;44.90;;;;;;4972514;28;20249;-48
2021/06/20 03:45:56;;;;;;;2.40;2.20;;;26.70;44.90;;;;;;4973482;28;20602;-43
2021/06/20 03:48:22;;;;;;;2.33;2.17;;;26.70;44.90;;;;;;4972902;28;20586;-37
2021/06/20 03:50:49;;;;;;;2.70;2.50;;;26.70;44.90;;;;;;4973641;28;20315;-38
2021/06/20 03:53:15;;;;;;;2.38;2.17;;;26.70;45.00;;;;;;4972440;28;20230;-41
2021/06/20 03:55:42;;;;;;;2.58;2.40;;;26.70;45.00;;;;;;4973940;28;20289;-41
2021/06/20 03:58:08;;;;;;;2.50;2.30;;;26.70;45.00;;;;;;4972864;28;20231;-54
2021/06/20 04:00:34;;;;;;;2.22;2.13;;;26.70;45.00;;;;;;4971837;28;20209;-46
2021/06/20 04:03:01;;;;;;;2.60;2.40;;;26.70;45.00;;;;;;4974447;28;20201;-44
2021/06/20 04:05:27;;;;;;;2.85;2.65;;;26.70;45.00;;;;;;4972979;28;20228;-42
2021/06/20 04:07:54;;;;;;;2.30;2.20;;;26.70;45.00;;;;;;4972957;28;20224;-50
2021/06/20 04:10:20;;;;;;;2.67;2.47;;;26.70;45.00;;;;;;4973144;28;20215;-38
2021/06/20 04:12:47;;;;;;;2.50;2.30;;;26.70;45.00;;;;;;4972530;28;20207;-40
2021/06/20 04:15:13;;;;;;;2.25;2.15;;;26.70;45.00;;;;;;4973313;28;20294;-41
2021/06/20 04:17:40;;;;;;;3.08;2.47;;;26.70;45.10;;;;;;4972636;28;20266;-50
2021/06/20 04:20:07;;;;;;;2.72;2.53;;;26.70;45.20;;;;;;4971044;28;20741;-48
2021/06/20 04:22:33;;;;;;;2.72;2.53;;;26.70;45.20;;;;;;4972266;28;20259;-40
2021/06/20 04:25:00;;;;;;;4.35;2.30;;;26.70;45.20;;;;;;4972507;28;20767;-48
2021/06/20 04:27:26;;;;;;;2.30;2.20;;;26.70;45.20;;;;;;4973128;28;20654;-45
2021/06/20 04:29:53;;;;;;;2.60;2.40;;;26.70;45.20;;;;;;4971797;28;20514;-43
2021/06/20 04:32:19;;;;;;;1.83;1.73;;;26.70;45.20;;;;;;4973514;28;20287;-42
2021/06/20 04:34:46;;;;;;;2.30;2.20;;;26.70;45.20;;;;;;4972260;28;20201;-36
2021/06/20 04:37:12;;;;;;;2.38;2.17;;;26.70;45.20;;;;;;4973539;28;20300;-50
2021/06/20 04:39:38;;;;;;;2.55;2.35;;;26.70;45.20;;;;;;4972180;28;20208;-46
2021/06/20 04:42:06;;;;;;;2.55;2.25;;;26.70;45.20;;;;;;4973123;28;20360;-42
2021/06/20 04:44:45;;;;;;;2.58;2.38;;;26.70;45.20;;;;;;4972456;28;20280;-46
2021/06/20 04:47:12;;;;;;;2.42;2.22;;;26.70;45.20;;;;;;4973197;28;20255;-43
2021/06/20 04:49:38;;;;;;;2.67;2.45;;;26.70;45.20;;;;;;4969382;28;20208;-52
2021/06/20 04:52:05;;;;;;;2.53;2.33;;;26.70;45.10;;;;;;4972569;28;20213;-53
2021/06/20 04:54:33;;;;;;;2.45;2.25;;;26.70;45.00;;;;;;4971058;28;20196;-54
2021/06/20 04:56:59;;;;;;;2.53;2.33;;;26.70;44.90;;;;;;4971948;28;20212;-49
2021/06/20 04:59:25;;;;;;;2.72;2.53;;;26.70;44.90;;;;;;4970471;28;20628;-50
2021/06/20 05:01:52;;;;;;;2.35;2.15;;;26.70;44.90;;;;;;4970575;28;20220;-40
2021/06/20 05:04:18;;;;;;;2.30;2.10;;;26.70;44.90;;;;;;4972723;28;20200;-42
2021/06/20 05:06:45;;;;;;;2.20;2.10;;;26.70;44.90;;;;;;4972235;28;20232;-43
2021/06/20 05:09:11;;;;;;;2.80;2.60;;;26.70;44.90;;;;;;4971260;28;20228;-38
2021/06/20 05:11:38;;;;;;;2.60;2.40;;;26.70;44.90;;;;;;4972368;28;20364;-45
2021/06/20 05:14:04;;;;;;;2.25;2.10;;;26.70;44.90;;;;;;4970715;28;20226;-38
2021/06/20 05:16:30;;;;;;;2.42;2.22;;;26.70;44.90;;;;;;4972147;28;20632;-57
2021/06/20 05:18:57;;;;;;;2.75;2.50;;;26.70;44.90;;;;;;4970353;28;20312;-41
2021/06/20 05:21:23;;;;;;;2.40;2.30;;;26.70;45.00;;;;;;4969095;28;20308;-43
2021/06/20 05:23:50;;;;;;;2.78;2.58;;;26.70;44.90;;;;;;4972178;28;20245;-49
2021/06/20 05:26:16;;;;;;;2.22;2.13;;;26.70;44.90;;;;;;4971071;28;20239;-46
2021/06/20 05:28:43;;;;;;;2.63;2.42;;;26.70;44.90;;;;;;4972131;28;20224;-48
2021/06/20 05:31:09;;;;;;;2.50;2.30;;;26.70;45.00;;;;;;4970896;28;20295;-51
2021/06/20 05:33:36;;;;;;;2.60;2.40;;;26.70;44.90;;;;;;4972301;28;20304;-45
2021/06/20 05:36:02;;;;;;;2.35;2.20;;;26.70;45.60;;;;;;4971004;28;20207;-42
2021/06/20 05:38:28;;;;;;;2.47;2.28;;;26.70;44.90;;;;;;4971271;28;20224;-36
2021/06/20 05:40:55;;;;;;;2.75;2.30;;;26.70;44.90;;;;;;4970620;28;20723;-50
2021/06/20 05:43:21;;;;;;;2.38;2.17;;;26.70;44.90;;;;;;4972087;28;20654;-41
2021/06/20 05:45:48;;;;;;;2.78;2.58;;;26.70;44.90;;;;;;4970730;28;20711;-47
2021/06/20 05:48:14;;;;;;;2.30;2.20;;;26.70;44.90;;;;;;4972230;28;20671;-42
2021/06/20 05:50:41;;;;;;;2.25;2.15;;;26.70;44.90;;;;;;4970409;28;20607;-46
2021/06/20 05:53:07;;;;;;;2.25;2.15;;;26.80;44.90;;;;;;4956532;28;20209;-38
2021/06/20 05:55:34;;;;;;;2.47;2.28;;;26.80;44.90;;;;;;4971793;28;20240;-42
2021/06/20 05:58:00;;;;;;;2.10;2.00;;;26.80;44.80;;;;;;4971330;28;20224;-47
2021/06/20 06:00:27;;;;;;;3.65;3.13;;;26.80;44.80;;;;;;4970515;28;20668;-48
2021/06/20 06:02:53;;;;;;;2.38;2.17;;;26.80;44.80;;;;;;4971199;28;20672;-39
2021/06/20 06:05:20;;;;;;;2.45;2.10;;;26.80;44.80;;;;;;4969694;28;20688;-44
2021/06/20 06:07:46;;;;;;;2.20;2.10;;;26.70;44.70;;;;;;4972285;28;20224;-38
2021/06/20 06:10:13;;;;;;;2.50;2.38;;;26.70;44.70;;;;;;4969842;28;20263;-43
2021/06/20 06:12:39;;;;;;;2.38;2.17;;;26.70;44.80;;;;;;4959102;23;20237;-42
2021/06/20 06:15:06;;;;;;;2.30;2.20;;;26.80;44.80;;;;;;4931257;29;20210;-37
2021/06/20 06:17:32;;;;;;;2.58;2.38;;;26.80;44.80;;;;;;4929707;29;20221;-36
2021/06/20 06:19:59;;;;;;;2.50;2.40;;;26.70;44.70;;;;;;4932583;29;20198;-37
2021/06/20 06:22:25;;;;;;;2.72;2.20;;;26.70;44.70;;;;;;4932424;29;20205;-38
2021/06/20 06:24:53;;;;;;;2.60;2.40;;;26.70;44.80;;;;;;4932982;29;20212;-37
2021/06/20 06:27:19;;;;;;;2.17;2.08;;;26.70;44.70;;;;;;4931538;29;21535;-41
2021/06/20 06:29:46;;;;;;;2.42;2.22;;;26.70;44.80;;;;;;4932752;29;20201;-42
2021/06/20 06:32:12;;;;;;;2.10;2.00;;;26.70;44.70;;;;;;4931767;29;20202;-49
2021/06/20 06:34:38;;;;;;;2.50;2.30;;;26.70;44.70;;;;;;4932901;29;20811;-51
2021/06/20 06:37:05;;;;;;;2.08;1.98;;;26.70;44.70;;;;;;4932155;29;20225;-43
2021/06/20 06:39:31;;;;;;;2.22;2.13;;;26.70;44.70;;;;;;4932903;29;20587;-44
2021/06/20 06:41:58;;;;;;;2.38;2.25;;;26.70;44.70;;;;;;4931774;29;20353;-47
2021/06/20 06:44:25;;;;;;;2.10;2.00;;;26.70;44.70;;;;;;4928573;29;20198;-46
2021/06/20 06:46:51;;;;;;;3.10;2.33;;;26.80;44.90;;;;;;4932315;28;20328;-42
2021/06/20 06:49:18;;;;;;;2.65;2.35;;;26.80;45.00;;;;;;4938508;29;20598;-46
2021/06/20 06:51:44;;;;;;;2.67;2.47;;;26.80;45.00;;;;;;4940198;28;20337;-42
2021/06/20 06:54:10;;;;;;;8.80;4.80;;;26.80;45.00;;;;;;4937874;28;20206;-37
2021/06/20 06:56:37;;;;;;;11.13;6.72;;;26.60;44.40;;;;;;4931628;29;20226;-42
2021/06/20 06:59:04;;;;;;;10.05;5.63;;;26.30;44.10;;;;;;4936294;29;20290;-45
2021/06/20 07:01:30;;;;;;;9.52;6.05;;;26.10;44.50;;;;;;4935217;29;20313;-42
2021/06/20 07:03:56;;;;;;;7.47;5.88;;;26.00;44.40;;;;;;4935049;29;20212;-41
2021/06/20 07:06:24;;;;;;;12.90;6.28;;;25.80;44.40;;;;;;4934526;29;20237;-42
2021/06/20 07:08:50;;;;;;;9.18;6.10;;;25.80;44.60;;;;;;4935499;29;20734;-40
2021/06/20 07:11:16;;;;;;;13.77;6.72;;;25.70;44.90;;;;;;4935329;29;20630;-37
2021/06/20 07:13:43;;;;;;;13.63;6.38;;;25.60;44.90;;;;;;4935209;29;20595;-46
2021/06/20 07:16:09;;;;;;;9.82;6.32;;;25.60;45.30;;;;;;4934794;29;20543;-43
2021/06/20 07:18:36;;;;;;;13.57;6.53;;;25.60;45.10;;;;;;4933202;28;20557;-40
2021/06/20 07:21:02;;;;;;;17.00;6.75;;;25.50;45.40;;;;;;4934387;29;20228;-44
2021/06/20 07:23:29;;;;;;;15.32;7.50;;;25.40;45.50;;;;;;4934234;29;20206;-45
2021/06/20 07:25:55;;;;;;;14.32;7.68;;;25.40;46.00;;;;;;4931320;29;20277;-45
2021/06/20 07:28:22;;;;;;;13.60;7.10;;;25.40;45.90;;;;;;4934623;29;20618;-37
2021/06/20 07:30:49;;;;;;;10.05;6.82;;;25.40;45.90;;;;;;4933778;29;20629;-39
2021/06/20 07:33:16;;;;;;;14.75;7.68;;;25.30;46.10;;;;;;4933196;29;20707;-41
2021/06/20 07:35:42;;;;;;;10.35;6.95;;;24.90;47.20;;;;;;4935099;29;20233;-40
2021/06/20 07:38:08;;;;;;;13.82;7.18;;;24.50;48.10;;;;;;4934360;29;20305;-41
2021/06/20 07:40:35;;;;;;;16.90;7.50;;;24.50;48.10;;;;;;4931968;29;20211;-39
2021/06/20 07:43:01;;;;;;;11.20;6.90;;;24.90;47.40;;;;;;4927576;29;20212;-41
2021/06/20 07:45:28;;;;;;;10.07;6.65;;;25.00;47.00;;;;;;4930843;29;20532;-39
2021/06/20 07:47:54;;;;;;;12.65;6.55;;;25.20;46.70;;;;;;4933789;29;20222;-45
2021/06/20 07:50:21;;;;;;;9.65;6.60;;;25.40;46.30;;;;;;4933049;29;20304;-42
2021/06/20 07:52:47;;;;;;;13.50;6.53;;;25.50;46.30;;;;;;4945777;29;20296;-46
2021/06/20 07:55:13;;;;;;;11.95;6.50;;;25.50;46.00;;;;;;4935660;29;20210;-42
2021/06/20 07:57:40;;;;;;;9.07;6.25;;;25.40;46.30;;;;;;4940028;29;20222;-49
2021/06/20 08:00:08;;;;;;;14.25;6.60;;;25.50;46.30;;;;;;4930866;29;20217;-44
2021/06/20 08:02:34;;;;;;;12.88;6.65;;;25.60;46.10;;;;;;4933051;29;20206;-47
2021/06/20 08:05:01;;;;;;;16.33;6.50;;;25.60;46.10;;;;;;4934427;29;20585;-43
2021/06/20 08:07:28;;;;;;;12.82;7.03;;;25.50;46.30;;;;;;4934185;29;20233;-45
2021/06/20 08:09:56;;;;;;;11.68;6.32;;;25.50;46.30;;;;;;4933962;29;20286;-43
2021/06/20 08:12:22;;;;;;;12.48;6.70;;;25.30;46.80;;;;;;4934059;29;20269;-43
2021/06/20 08:14:49;;;;;;;11.23;5.60;;;25.40;46.70;;;;;;4933365;29;20198;-50
2021/06/20 08:17:15;;;;;;;10.88;5.68;;;25.60;46.50;;;;;;4934140;29;20218;-45
2021/06/20 08:19:41;;;;;;;12.45;6.28;;;25.60;46.20;;;;;;4933209;29;20217;-39
2021/06/20 08:22:08;;;;;;;13.95;6.00;;;25.60;46.20;;;;;;4937931;29;20288;-45
2021/06/20 08:24:35;;;;;;;10.73;5.38;;;25.60;46.30;;;;;;4945269;28;21222;-43
2021/06/20 08:27:01;;;;;;;10.30;5.50;;;25.70;46.20;;;;;;4935640;29;20612;-45
2021/06/20 08:29:28;;;;;;;11.63;5.88;;;25.80;46.00;;;;;;4933626;29;20313;-42
2021/06/20 08:31:54;;;;;;;14.10;5.70;;;25.80;45.90;;;;;;4931612;29;20224;-42
2021/06/20 08:34:21;;;;;;;16.27;5.75;;;25.90;45.60;;;;;;4940838;28;20296;-44
2021/06/20 08:36:48;;;;;;;15.32;6.18;;;25.80;45.30;;;;;;4952710;28;20320;-41
2021/06/20 08:39:14;;;;;;;12.70;5.95;;;25.80;45.10;;;;;;4947878;28;20202;-40
2021/06/20 08:41:41;;;;;;;9.30;5.25;;;25.90;45.30;;;;;;4934043;29;20305;-47
2021/06/20 08:44:07;;;;;;;20.83;6.30;;;26.00;45.10;;;;;;4925176;29;20221;-41
2021/06/20 08:46:34;;;;;;;13.80;4.53;;;25.80;45.00;;;;;;4926292;29;20256;-45
2021/06/20 08:49:00;;;;;;;13.07;5.03;;;25.80;44.30;;;;;;4933006;29;20210;-45
2021/06/20 08:51:27;;;;;;;10.98;4.78;;;26.00;44.40;;;;;;4932812;29;20216;-47
2021/06/20 08:53:53;;;;;;;10.20;4.53;;;26.10;44.60;;;;;;4934041;29;20261;-46
2021/06/20 08:56:20;;;;;;;8.95;4.25;;;26.20;44.60;;;;;;4934404;29;20396;-43
2021/06/20 08:58:46;;;;;;;8.70;4.70;;;26.30;44.70;;;;;;4934295;29;20230;-44
2021/06/20 09:01:13;;;;;;;8.05;4.15;;;26.40;44.70;;;;;;4934060;29;20202;-44
2021/06/20 09:03:40;;;;;;;7.82;5.13;;;26.40;44.80;;;;;;4934558;29;20206;-49
2021/06/20 09:06:06;;;;;;;8.02;4.47;;;26.40;44.70;;;;;;4933593;29;20233;-45
2021/06/20 09:08:32;;;;;;;7.63;4.10;;;26.40;44.70;;;;;;4933810;29;20206;-39
2021/06/20 09:10:59;;;;;;;9.30;5.03;;;26.50;44.80;;;;;;4933594;29;20212;-40
2021/06/20 09:13:25;;;;;;;8.98;4.00;;;26.50;44.80;;;;;;4934333;29;20230;-47
2021/06/20 09:15:52;;;;;;;9.00;4.90;;;26.50;44.80;;;;;;4934018;29;20261;-40
2021/06/20 09:18:18;;;;;;;7.97;4.75;;;26.50;44.80;;;;;;4933054;29;20213;-40
2021/06/20 09:20:45;;;;;;;7.78;4.82;;;26.50;44.80;;;;;;4932727;29;20304;-39
2021/06/20 09:23:11;;;;;;;8.23;4.82;;;26.50;44.80;;;;;;4927579;29;20755;-47
2021/06/20 09:25:38;;;;;;;7.53;4.63;;;26.50;44.80;;;;;;4933759;29;20623;-49
2021/06/20 09:28:04;;;;;;;7.78;4.28;;;26.50;44.80;;;;;;4933222;29;20229;-39
2021/06/20 09:30:31;;;;;;;7.57;4.80;;;26.50;44.80;;;;;;4933228;29;20296;-39
2021/06/20 09:32:57;;;;;;;7.22;4.80;;;26.50;44.80;;;;;;4933791;29;20341;-48
2021/06/20 09:35:23;;;;;;;6.20;3.92;;;26.60;44.90;;;;;;4933649;29;20556;-39
2021/06/20 09:37:50;;;;;;;9.55;4.78;;;26.60;44.90;;;;;;4933539;29;20210;-51
2021/06/20 09:40:17;;;;;;;8.48;4.43;;;26.60;44.90;;;;;;4930037;29;20222;-46
2021/06/20 09:42:44;;;;;;;9.27;4.50;;;26.60;44.90;;;;;;4928299;29;20205;-51
2021/06/20 09:45:10;;;;;;;8.95;4.30;;;26.60;44.90;;;;;;4930415;29;20526;-46
2021/06/20 09:47:36;;;;;;;6.20;3.83;;;26.60;44.90;;;;;;4927682;29;21003;-56
2021/06/20 09:50:03;;;;;;;8.00;4.50;;;26.60;45.10;;;;;;4929745;29;20908;-51
2021/06/20 09:52:29;;;;;;;8.88;4.53;;;26.60;45.30;;;;;;4930730;29;20202;-48
2021/06/20 09:54:56;;;;;;;5.13;4.05;;;26.70;45.50;;;;;;4931125;29;20206;-57
2021/06/20 09:57:22;;;;;;;6.30;3.78;;;26.60;45.50;;;;;;4933319;29;20311;-49
2021/06/20 09:59:49;;;;;;;8.48;4.60;;;26.70;45.60;;;;;;4931427;29;20655;-47
2021/06/20 10:02:15;;;;;;;8.15;4.97;;;26.70;45.60;;;;;;4931842;29;20651;-45
2021/06/20 10:04:42;;;;;;;4.65;3.45;;;26.70;45.60;;;;;;4928904;29;20726;-44
2021/06/20 10:07:08;;;;;;;9.68;4.05;;;26.70;45.60;;;;;;4932282;29;20242;-46
2021/06/20 10:09:35;;;;;;;11.82;4.85;;;26.70;45.70;;;;;;4933123;29;20209;-42
2021/06/20 10:12:01;;;;;;;9.23;4.05;;;26.70;45.60;;;;;;4930907;29;20586;-40
2021/06/20 10:14:28;;;;;;;9.65;3.90;;;26.70;45.60;;;;;;4931451;29;20609;-44
2021/06/20 10:16:54;;;;;;;6.93;4.18;;;26.70;45.60;;;;;;4930199;29;20403;-43
2021/06/20 10:19:21;;;;;;;9.05;4.60;;;26.70;45.60;;;;;;4931593;29;20206;-46
2021/06/20 10:21:47;;;;;;;7.05;3.55;;;26.70;45.60;;;;;;4930872;29;20210;-54
2021/06/20 10:24:14;;;;;;;6.50;4.03;;;26.70;45.70;;;;;;4933800;29;20210;-42
2021/06/20 10:26:40;;;;;;;5.80;4.00;;;26.70;45.70;;;;;;4939247;29;20337;-52
2021/06/20 10:29:07;;;;;;;10.00;4.70;;;26.70;45.80;;;;;;4938484;29;20205;-42
2021/06/20 10:31:33;;;;;;;10.27;4.20;;;26.70;45.80;;;;;;4936978;29;20198;-52
2021/06/20 10:34:00;;;;;;;7.40;4.10;;;26.70;46.00;;;;;;4938365;29;20198;-51
2021/06/20 10:36:26;;;;;;;7.53;4.20;;;26.70;46.00;;;;;;4938159;29;20230;-41
2021/06/20 10:38:53;;;;;;;7.32;4.63;;;26.70;46.10;;;;;;4936148;29;20206;-53
2021/06/20 10:41:19;;;;;;;9.15;5.15;;;26.70;46.20;;;;;;4938740;29;20285;-56
2021/06/20 10:43:46;;;;;;;9.07;4.55;;;26.70;46.20;;;;;;4936178;29;20206;-46
2021/06/20 10:46:12;;;;;;;9.63;4.32;;;26.70;46.20;;;;;;4937668;29;20226;-46
2021/06/20 10:48:39;;;;;;;9.43;4.97;;;26.70;46.30;;;;;;4937332;29;20206;-45
2021/06/20 10:51:05;;;;;;;9.70;4.97;;;26.70;46.30;;;;;;4937787;29;20659;-44
2021/06/20 10:53:32;;;;;;;10.48;5.20;;;26.80;46.40;;;;;;4935753;29;20572;-42
2021/06/20 10:55:58;;;;;;;5.32;4.32;;;26.80;46.30;;;;;;4928195;29;20559;-45
2021/06/20 10:58:25;;;;;;;6.50;4.25;;;26.80;46.10;;;;;;4937233;29;20641;-41
2021/06/20 11:00:51;;;;;;;6.53;4.50;;;26.80;46.10;;;;;;4937465;29;20214;-40
2021/06/20 11:03:18;;;;;;;5.45;4.47;;;26.90;46.30;;;;;;4940625;29;20214;-40
2021/06/20 11:05:45;;;;;;;7.55;4.53;;;26.80;46.40;;;;;;4942453;28;20226;-43
2021/06/20 11:08:11;;;;;;;8.77;4.70;;;26.90;46.50;;;;;;4938816;29;20237;-41
2021/06/20 11:10:38;;;;;;;7.20;4.70;;;26.90;46.70;;;;;;4949249;29;20201;-40
2021/06/20 11:13:04;;;;;;;17.42;8.82;;;26.80;46.80;;;;;;4937454;29;20616;-40
2021/06/20 11:15:31;;;;;;;39.25;16.25;;;26.80;46.80;;;;;;4937789;29;20583;-39
2021/06/20 11:17:57;;;;;;;34.10;13.50;;;26.80;47.20;;;;;;4940125;29;20212;-48
2021/06/20 11:20:24;;;;;;;27.25;12.05;;;26.90;47.50;;;;;;4932519;29;20210;-50
2021/06/20 11:22:50;;;;;;;24.83;12.23;;;26.90;48.20;;;;;;4936669;29;20221;-41
2021/06/20 11:25:17;;;;;;;28.05;13.57;;;26.90;48.70;;;;;;4932420;29;20226;-47
2021/06/20 11:27:43;;;;;;;26.63;12.82;;;26.90;49.10;;;;;;4936436;29;20320;-50
2021/06/20 11:30:10;;;;;;;30.63;12.85;;;26.90;49.10;;;;;;4937017;29;20209;-50
2021/06/20 11:32:36;;;;;;;28.33;12.98;;;26.90;48.90;;;;;;4936422;29;20619;-50
2021/06/20 11:35:04;;;;;;;26.40;12.48;;;26.90;49.30;;;;;;4938072;29;20292;-42
2021/06/20 11:37:30;;;;;;;21.83;11.27;;;26.90;49.40;;;;;;4933859;29;20198;-47
2021/06/20 11:39:57;;;;;;;23.55;12.30;;;26.90;49.00;;;;;;4933979;29;20216;-41
2021/06/20 11:42:23;;;;;;;25.90;12.63;;;26.90;49.40;;;;;;4935489;29;20217;-41
2021/06/20 11:44:50;;;;;;;24.90;11.70;;;26.90;49.50;;;;;;4935145;29;20662;-41
2021/06/20 11:47:16;;;;;;;25.40;11.80;;;26.90;49.30;;;;;;4931228;29;20631;-38
2021/06/20 11:49:43;;;;;;;23.83;10.60;;;26.90;49.50;;;;;;4932306;29;20289;-46
2021/06/20 11:52:09;;;;;;;26.33;10.95;;;26.90;49.40;;;;;;4933722;29;20212;-40
2021/06/20 11:54:35;;;;;;;21.95;10.88;;;26.90;49.00;;;;;;4935721;29;20232;-40
2021/06/20 11:57:02;;;;;;;23.60;10.70;;;26.90;48.90;;;;;;4934940;29;20217;-43
2021/06/20 11:59:28;;;;;;;23.60;10.27;;;26.90;48.70;;;;;;4935646;29;20698;-39
2021/06/20 12:01:55;;;;;;;22.95;10.50;;;26.90;49.10;;;;;;4932652;29;20202;-38
2021/06/20 12:04:21;;;;;;;21.83;10.88;;;26.90;48.90;;;;;;4933250;29;20398;-39
2021/06/20 12:06:48;;;;;;;21.67;9.73;;;26.90;49.00;;;;;;4933074;29;20226;-39
2021/06/20 12:09:18;;;;;;;21.15;10.18;;;26.90;48.60;;;;;;4933590;29;20206;-47
2021/06/20 12:11:44;;;;;;;22.50;9.52;;;26.90;48.80;;;;;;4933291;29;20685;-41
2021/06/20 12:14:11;;;;;;;22.00;9.52;;;26.90;48.80;;;;;;4934309;29;20598;-43
2021/06/20 12:16:37;;;;;;;19.92;9.13;;;26.90;48.60;;;;;;4935061;29;20245;-43
2021/06/20 12:19:04;;;;;;;19.20;8.93;;;26.90;48.70;;;;;;4948181;23;20324;-55
2021/06/20 12:21:30;;;;;;;20.65;9.15;;;26.90;48.40;;;;;;4932219;29;20217;-37
2021/06/20 12:23:57;;;;;;;16.58;9.23;;;26.90;48.70;;;;;;4925974;29;20735;-53
2021/06/20 12:26:23;;;;;;;14.50;8.45;;;26.90;48.50;;;;;;4931832;29;20631;-48
2021/06/20 12:28:50;;;;;;;17.83;9.05;;;26.90;48.50;;;;;;4935329;29;20662;-49
2021/06/20 12:31:16;;;;;;;18.00;8.45;;;26.90;48.40;;;;;;4934548;29;20309;-49
2021/06/20 12:33:42;;;;;;;15.32;7.97;;;26.90;48.30;;;;;;4935584;29;20506;-38
2021/06/20 12:36:09;;;;;;;16.30;8.50;;;26.90;48.30;;;;;;4933654;29;20285;-48
2021/06/20 12:38:37;;;;;;;13.45;7.43;;;26.90;48.30;;;;;;4934076;29;20214;-41